Time;durP1;ratioP1;P1;durP2;ratioP2;P2;SDS_P1;SDS_P2;PMS_P1;PMS_P2;Temp;Humidity;BMP_temperature;BMP_pressure;BME280_temperature;BME280_humidity;BME280_pressure;Samples;Min_cycle;Max_cycle;Signal;HPM_P1;HPM_P2
2023/09/23 00:01:04;;;;;;;3.35;1.40;;;;;;;17.34;65.03;98480.22;5089350;28;20044;-74
2023/09/23 00:03:33;;;;;;;2.42;1.40;;;;;;;17.40;65.45;98477.81;5089276;28;20068;-74
2023/09/23 00:06:00;;;;;;;2.47;1.60;;;;;;;17.36;65.34;98487.13;5089723;28;20040;-73
2023/09/23 00:08:27;;;;;;;1.88;1.30;;;;;;;17.38;64.48;98487.81;5088872;28;20040;-74
2023/09/23 00:10:54;;;;;;;2.10;1.30;;;;;;;17.42;64.48;98470.47;5088255;28;20049;-74
2023/09/23 00:13:21;;;;;;;2.97;1.90;;;;;;;17.43;65.67;98453.41;5088569;28;20040;-74
2023/09/23 00:15:49;;;;;;;3.30;2.60;;;;;;;17.06;66.54;98410.56;5089237;28;20040;-74
2023/09/23 00:18:17;;;;;;;3.47;2.67;;;;;;;17.31;65.75;98460.78;5088973;28;20366;-74
2023/09/23 00:20:44;;;;;;;3.50;2.13;;;;;;;17.41;65.92;98473.28;5087717;28;20064;-74
2023/09/23 00:23:11;;;;;;;3.95;2.55;;;;;;;17.33;66.12;98467.84;5089357;28;20052;-74
2023/09/23 00:25:38;;;;;;;3.13;1.95;;;;;;;17.18;65.97;98456.75;5089409;28;20044;-74
2023/09/23 00:28:08;;;;;;;2.67;2.03;;;;;;;17.25;66.44;98456.03;5087898;28;20123;-74
2023/09/23 00:30:35;;;;;;;2.72;1.85;;;;;;;17.29;65.87;98472.66;5088722;28;20052;-74
2023/09/23 00:33:05;;;;;;;3.00;1.92;;;;;;;17.28;66.48;98484.34;5088746;28;20037;-74
2023/09/23 00:35:34;;;;;;;3.00;1.80;;;;;;;17.28;65.88;98498.56;5087744;28;20052;-74
2023/09/23 00:38:01;;;;;;;2.50;1.67;;;;;;;17.34;65.67;98502.50;5088556;28;20048;-74
2023/09/23 00:40:32;;;;;;;3.58;1.80;;;;;;;17.24;65.82;98505.22;5087695;28;20044;-74
2023/09/23 00:43:05;;;;;;;2.50;1.60;;;;;;;14.47;65.74;98017.50;5088763;28;20044;-74
2023/09/23 00:45:33;;;;;;;3.00;2.00;;;;;;;17.23;65.41;98478.59;5088575;28;20048;-74
2023/09/23 00:48:00;;;;;;;3.38;2.00;;;;;;;17.27;65.14;98480.81;5088487;28;20059;-74
2023/09/23 00:50:29;;;;;;;2.72;1.80;;;;;;;17.30;64.30;98487.72;5088657;28;20045;-74
2023/09/23 00:52:57;;;;;;;2.97;1.42;;;;;;;16.78;64.37;98415.06;5088865;28;20075;-74
2023/09/23 00:55:24;;;;;;;3.20;1.90;;;;;;;17.15;64.22;98479.28;5088203;28;20036;-74
2023/09/23 00:57:53;;;;;;;2.40;1.45;;;;;;;17.36;64.12;98494.31;5087420;28;20207;-74
2023/09/23 01:00:25;;;;;;;2.50;1.50;;;;;;;17.16;64.24;98496.19;5088244;28;20048;-74
2023/09/23 01:02:52;;;;;;;2.50;1.70;;;;;;;16.58;64.38;98410.72;5088455;28;20238;-74
2023/09/23 01:05:19;;;;;;;3.28;1.98;;;;;;;17.21;64.27;98521.56;5088432;28;20040;-74
2023/09/23 01:07:48;;;;;;;2.55;1.88;;;;;;;17.19;63.80;98511.97;5087181;28;20044;-74
2023/09/23 01:10:17;;;;;;;3.17;1.83;;;;;;;16.89;64.03;98448.81;5087239;28;20346;-74
2023/09/23 01:12:45;;;;;;;3.45;2.33;;;;;;;16.89;64.57;98443.47;5088299;28;20040;-74
2023/09/23 01:15:12;;;;;;;2.90;1.75;;;;;;;17.19;64.73;98467.28;5088091;28;20032;-74
2023/09/23 01:17:39;;;;;;;3.38;2.38;;;;;;;17.26;64.61;98462.22;5086984;28;20135;-74
2023/09/23 01:20:09;;;;;;;3.10;2.17;;;;;;;17.22;64.68;98472.38;5088031;28;20053;-74
2023/09/23 01:22:37;;;;;;;5.53;3.63;;;;;;;17.17;65.09;98487.19;5086946;28;20047;-74
2023/09/23 01:25:04;;;;;;;4.18;2.60;;;;;;;16.99;65.30;98469.22;5088009;28;20044;-74
2023/09/23 01:27:34;;;;;;;4.43;2.50;;;;;;;16.98;65.34;98480.06;5087965;28;20056;-74
2023/09/23 01:30:03;;;;;;;3.28;2.10;;;;;;;16.94;64.04;98466.13;5087676;28;20115;-74
2023/09/23 01:32:39;;;;;;;3.20;2.05;;;;;;;17.17;64.55;98509.44;5087900;28;20054;-74
2023/09/23 01:35:06;;;;;;;2.75;1.98;;;;;;;17.18;64.45;98512.97;5087750;28;20044;-74
2023/09/23 01:37:34;;;;;;;3.78;1.98;;;;;;;17.20;63.79;98514.53;5087772;28;20284;-74
2023/09/23 01:40:03;;;;;;;2.88;1.70;;;;;;;17.00;63.84;98494.16;5086597;28;20119;-74
2023/09/23 01:42:32;;;;;;;3.17;2.08;;;;;;;16.94;64.35;98492.06;5086591;28;20324;-74
2023/09/23 01:44:59;;;;;;;2.92;1.90;;;;;;;16.99;65.16;98512.03;5087591;28;20048;-74
2023/09/23 01:47:26;;;;;;;3.55;1.98;;;;;;;16.45;65.09;98408.38;5087601;28;20292;-74
2023/09/23 01:49:53;;;;;;;3.72;2.47;;;;;;;17.05;65.54;98521.31;5087485;28;20047;-74
2023/09/23 01:52:19;;;;;;;4.65;3.38;;;;;;;17.08;65.58;98530.91;5087456;28;20044;-74
2023/09/23 01:54:48;;;;;;;3.70;2.60;;;;;;;17.05;65.74;98553.44;5087888;28;20243;-75
2023/09/23 01:57:17;;;;;;;4.15;2.30;;;;;;;17.16;65.31;98563.13;5087089;28;20048;-75
2023/09/23 01:59:44;;;;;;;3.22;2.25;;;;;;;17.18;64.74;98574.53;5087591;28;20040;-75
2023/09/23 02:02:11;;;;;;;2.60;1.85;;;;;;;17.14;64.79;98582.03;5087023;28;20212;-75
2023/09/23 02:04:40;;;;;;;3.10;1.90;;;;;;;17.14;64.55;98578.50;5086956;28;20048;-75
2023/09/23 02:07:07;;;;;;;2.90;1.98;;;;;;;17.19;64.60;98585.09;5086020;28;20042;-75
2023/09/23 02:09:35;;;;;;;2.63;1.73;;;;;;;17.19;64.69;98581.59;5086035;28;20063;-75
2023/09/23 02:12:01;;;;;;;3.00;2.10;;;;;;;17.11;65.30;98568.94;5086805;28;20268;-74
2023/09/23 02:14:30;;;;;;;3.05;1.90;;;;;;;17.06;65.67;98565.84;5086146;28;20051;-75
2023/09/23 02:16:57;;;;;;;3.60;2.03;;;;;;;17.07;65.00;98556.81;5086874;28;20219;-75
2023/09/23 02:19:25;;;;;;;3.10;2.25;;;;;;;17.12;66.02;98543.00;5085646;28;20044;-74
2023/09/23 02:21:52;;;;;;;3.03;2.03;;;;;;;17.20;65.70;98541.31;5086687;28;20085;-74
2023/09/23 02:24:19;;;;;;;3.38;2.25;;;;;;;16.73;66.59;98467.31;5086568;28;20040;-75
2023/09/23 02:26:47;;;;;;;3.40;2.30;;;;;;;17.15;67.16;98532.00;5086751;28;20188;-75
2023/09/23 02:29:14;;;;;;;2.85;2.17;;;;;;;16.96;67.02;98495.44;5087051;28;20188;-75
2023/09/23 02:31:46;;;;;;;2.88;2.03;;;;;;;16.36;67.89;98418.09;5085584;28;20052;-75
2023/09/23 02:34:16;;;;;;;3.25;2.50;;;;;;;16.81;67.77;98470.13;5085602;28;20098;-74
2023/09/23 02:36:45;;;;;;;3.28;2.15;;;;;;;17.14;68.16;98541.03;5086575;28;20300;-75
2023/09/23 02:39:15;;;;;;;3.55;2.35;;;;;;;17.13;68.55;98542.84;5086835;28;20044;-75
2023/09/23 02:41:45;;;;;;;3.20;2.22;;;;;;;17.21;68.27;98551.03;5086223;28;20362;-74
2023/09/23 02:44:12;;;;;;;2.60;1.90;;;;;;;17.19;68.07;98557.50;5086452;28;20053;-75
2023/09/23 02:46:40;;;;;;;2.63;1.90;;;;;;;16.80;67.94;98514.75;5086629;28;20184;-74
2023/09/23 02:49:09;;;;;;;2.35;1.67;;;;;;;17.16;67.57;98577.38;5084942;28;20063;-74
2023/09/23 02:51:36;;;;;;;2.60;1.70;;;;;;;17.18;67.65;98579.91;5086236;28;20114;-74
2023/09/23 02:54:04;;;;;;;2.63;1.70;;;;;;;17.15;67.40;98586.38;5085953;28;20040;-75
2023/09/23 02:56:30;;;;;;;4.18;2.00;;;;;;;17.14;66.78;98592.72;5086079;28;20047;-75
2023/09/23 02:58:59;;;;;;;2.33;1.63;;;;;;;17.07;68.19;98601.47;5084873;28;20106;-74
2023/09/23 03:01:27;;;;;;;3.03;1.70;;;;;;;17.11;67.99;98603.72;5085015;28;20068;-74
2023/09/23 03:03:55;;;;;;;3.13;2.00;;;;;;;17.17;68.18;98599.63;5086073;28;20056;-74
2023/09/23 03:06:23;;;;;;;3.25;2.15;;;;;;;16.39;69.32;98483.81;5085797;28;20045;-74
2023/09/23 03:08:54;;;;;;;3.25;1.90;;;;;;;17.00;69.76;98595.84;5085941;28;20055;-75
2023/09/23 03:11:21;;;;;;;3.08;1.92;;;;;;;16.99;70.25;98602.19;5085939;28;20044;-74
2023/09/23 03:13:50;;;;;;;2.80;1.80;;;;;;;16.98;69.65;98605.88;5084793;28;20044;-75
2023/09/23 03:16:28;;;;;;;3.22;2.30;;;;;;;16.99;70.79;98597.69;5085556;28;20378;-74
2023/09/23 03:19:10;;;;;;;5.22;2.50;;;;;;;17.03;70.61;98592.06;5085568;28;20042;-74
2023/09/23 03:21:41;;;;;;;2.80;1.83;;;;;;;17.01;70.13;98600.22;5084481;28;20056;-74
2023/09/23 03:24:08;;;;;;;3.53;2.40;;;;;;;16.84;70.23;98599.13;5085513;28;20048;-74
2023/09/23 03:26:34;;;;;;;3.55;2.25;;;;;;;16.95;70.08;98585.59;5085720;28;20051;-74
2023/09/23 03:29:01;;;;;;;3.30;2.45;;;;;;;16.98;70.38;98579.94;5086016;28;20119;-74
2023/09/23 03:31:28;;;;;;;5.15;2.22;;;;;;;16.88;70.72;98570.25;5085405;28;20353;-74
2023/09/23 03:33:55;;;;;;;4.50;2.33;;;;;;;16.94;70.72;98597.28;5084856;28;20086;-74
2023/09/23 03:36:24;;;;;;;2.83;1.85;;;;;;;16.93;69.71;98595.59;5085929;28;20280;-74
2023/09/23 03:38:52;;;;;;;3.03;1.98;;;;;;;16.95;69.99;98608.81;5084499;28;20074;-74
2023/09/23 03:41:19;;;;;;;4.32;2.35;;;;;;;16.93;69.31;98614.31;5085606;28;20052;-74
2023/09/23 03:43:46;;;;;;;3.50;2.40;;;;;;;16.94;69.82;98613.34;5085121;28;20326;-75
2023/09/23 03:46:14;;;;;;;3.83;2.50;;;;;;;16.91;69.45;98629.69;5084712;28;20036;-74
2023/09/23 03:48:41;;;;;;;3.33;2.50;;;;;;;16.90;69.86;98628.00;5084502;28;20079;-74
2023/09/23 03:51:09;;;;;;;2.92;2.17;;;;;;;16.48;69.04;98554.34;5085530;28;20050;-74
2023/09/23 03:53:36;;;;;;;4.32;2.50;;;;;;;16.86;69.43;98629.25;5085214;28;20067;-74
2023/09/23 03:56:06;;;;;;;3.58;2.47;;;;;;;16.85;69.90;98622.22;5085718;28;20054;-74
2023/09/23 03:58:33;;;;;;;3.30;2.75;;;;;;;16.87;70.26;98625.59;5084062;28;20044;-74
2023/09/23 04:01:04;;;;;;;3.70;2.80;;;;;;;16.80;70.15;98621.78;5085068;28;20098;-74
2023/09/23 04:03:34;;;;;;;3.42;2.55;;;;;;;16.66;70.24;98615.03;5085476;28;20041;-75
2023/09/23 04:06:01;;;;;;;3.50;2.67;;;;;;;16.77;70.43;98629.25;5084268;28;20040;-74
2023/09/23 04:08:29;;;;;;;3.40;2.30;;;;;;;16.76;70.88;98631.09;5085331;28;20040;-74
2023/09/23 04:10:56;;;;;;;3.85;2.80;;;;;;;16.71;71.45;98644.06;5084208;28;20293;-74
2023/09/23 04:13:25;;;;;;;4.18;3.10;;;;;;;16.40;73.05;98605.00;5084246;28;20123;-74
2023/09/23 04:15:53;;;;;;;3.55;3.05;;;;;;;16.65;72.45;98642.75;5084598;28;20124;-74
2023/09/23 04:18:20;;;;;;;4.55;3.17;;;;;;;16.28;73.28;98585.56;5084707;28;20037;-74
2023/09/23 04:20:50;;;;;;;3.65;2.88;;;;;;;16.64;72.31;98643.72;5084979;28;20064;-74
2023/09/23 04:23:17;;;;;;;4.55;3.28;;;;;;;16.33;71.81;98589.50;5084535;28;20052;-75
2023/09/23 04:25:44;;;;;;;4.05;3.13;;;;;;;16.63;72.31;98644.72;5084317;28;20044;-75
2023/09/23 04:28:11;;;;;;;3.30;2.72;;;;;;;16.60;72.63;98652.19;5084140;28;20244;-75
2023/09/23 04:30:39;;;;;;;4.05;2.80;;;;;;;16.68;71.83;98657.72;5085701;28;20045;-74
2023/09/23 04:33:06;;;;;;;4.07;2.50;;;;;;;16.66;71.78;98644.47;5084855;28;20108;-75
2023/09/23 04:35:34;;;;;;;5.65;3.10;;;;;;;16.70;71.96;98642.34;5083893;28;20049;-75
2023/09/23 04:38:02;;;;;;;3.33;2.70;;;;;;;16.37;71.42;98566.00;5084884;28;20036;-74
2023/09/23 04:40:29;;;;;;;5.20;2.90;;;;;;;16.26;72.82;98561.66;5084822;28;20050;-75
2023/09/23 04:42:55;;;;;;;3.60;2.78;;;;;;;16.50;74.11;98630.78;5085230;28;20059;-75
2023/09/23 04:45:24;;;;;;;3.70;2.90;;;;;;;16.48;74.27;98655.97;5087131;28;20043;-75
2023/09/23 04:47:52;;;;;;;3.88;2.42;;;;;;;16.62;72.49;98666.25;5088892;28;20040;-75
2023/09/23 04:50:19;;;;;;;3.40;2.70;;;;;;;16.40;72.47;98643.28;5088609;28;20056;-74
2023/09/23 04:52:46;;;;;;;3.97;2.75;;;;;;;16.56;72.82;98681.03;5088491;28;20044;-75
2023/09/23 04:55:13;;;;;;;4.28;2.90;;;;;;;15.51;71.93;98502.56;5088520;28;20051;-75
2023/09/23 04:57:40;;;;;;;3.78;2.63;;;;;;;16.62;71.59;98675.13;5088390;28;20052;-75
2023/09/23 05:00:10;;;;;;;3.13;2.42;;;;;;;16.61;71.08;98694.84;5088735;28;20045;-75
2023/09/23 05:02:41;;;;;;;4.35;3.38;;;;;;;16.51;70.78;98666.38;5088094;28;20051;-75
2023/09/23 05:05:11;;;;;;;3.75;3.20;;;;;;;16.38;71.29;98636.38;5088554;28;20052;-75
2023/09/23 05:07:38;;;;;;;5.18;3.50;;;;;;;16.56;71.56;98686.38;5088073;28;20036;-74
2023/09/23 05:10:07;;;;;;;4.47;3.72;;;;;;;16.28;71.37;98644.38;5088261;28;20048;-75
2023/09/23 05:12:34;;;;;;;3.78;3.20;;;;;;;16.57;71.52;98705.97;5088501;28;20048;-74
2023/09/23 05:15:00;;;;;;;4.53;3.55;;;;;;;16.54;71.80;98711.59;5087077;28;20078;-75
2023/09/23 05:17:28;;;;;;;4.18;3.72;;;;;;;16.20;71.70;98663.78;5087748;28;20116;-75
2023/09/23 05:19:55;;;;;;;4.03;3.28;;;;;;;16.49;71.18;98713.81;5087797;28;20064;-75
2023/09/23 05:22:23;;;;;;;4.03;3.03;;;;;;;16.25;71.05;98660.72;5087154;28;20040;-75
2023/09/23 05:24:56;;;;;;;3.85;3.30;;;;;;;16.47;71.06;98713.97;5087700;28;20048;-75
2023/09/23 05:27:24;;;;;;;4.57;3.03;;;;;;;16.53;70.98;98728.63;5088232;28;20197;-75
2023/09/23 05:29:52;;;;;;;3.92;2.97;;;;;;;16.47;70.93;98726.50;5086773;28;20041;-75
2023/09/23 05:32:19;;;;;;;3.97;2.90;;;;;;;16.26;71.72;98716.72;5087828;28;20220;-75
2023/09/23 05:34:47;;;;;;;4.03;3.00;;;;;;;16.28;71.88;98733.47;5087738;28;20048;-74
2023/09/23 05:37:14;;;;;;;4.85;2.97;;;;;;;16.34;71.91;98729.41;5086430;28;20062;-75
2023/09/23 05:39:45;;;;;;;4.40;2.95;;;;;;;16.33;72.42;98738.41;5087502;28;20322;-74
2023/09/23 05:42:13;;;;;;;4.20;2.80;;;;;;;16.30;71.61;98741.34;5087381;28;20060;-75
2023/09/23 05:44:41;;;;;;;3.17;2.55;;;;;;;16.30;71.66;98738.69;5087670;28;20240;-75
2023/09/23 05:47:08;;;;;;;3.17;2.58;;;;;;;16.20;71.46;98721.75;5086360;28;20074;-75
2023/09/23 05:49:36;;;;;;;3.72;3.20;;;;;;;16.32;71.89;98753.59;5086860;28;20172;-74
2023/09/23 05:52:04;;;;;;;3.33;2.58;;;;;;;16.38;71.55;98746.88;5086988;28;20312;-75
2023/09/23 05:54:31;;;;;;;3.30;2.65;;;;;;;16.34;71.73;98753.47;5087431;28;20040;-75
2023/09/23 05:56:59;;;;;;;3.05;2.47;;;;;;;16.28;72.57;98754.84;5086706;28;20037;-75
2023/09/23 05:59:26;;;;;;;3.47;2.10;;;;;;;16.00;71.83;98710.16;5086136;28;20043;-75
2023/09/23 06:01:53;;;;;;;3.38;2.40;;;;;;;16.27;72.08;98755.84;5086106;28;20040;-74
2023/09/23 06:04:19;;;;;;;3.70;2.50;;;;;;;16.24;72.28;98766.81;5087006;28;20113;-75
2023/09/23 06:06:46;;;;;;;3.60;2.58;;;;;;;16.18;72.41;98775.38;5087421;28;20064;-74
2023/09/23 06:09:15;;;;;;;3.30;2.30;;;;;;;16.12;71.80;98745.66;5087083;28;20086;-75
2023/09/23 06:11:43;;;;;;;3.30;2.45;;;;;;;16.21;71.00;98783.13;5087037;28;20111;-75
2023/09/23 06:14:11;;;;;;;3.42;2.20;;;;;;;16.20;71.25;98778.75;5087043;28;20051;-75
2023/09/23 06:16:38;;;;;;;3.70;2.83;;;;;;;16.25;71.11;98781.03;5069306;28;20093;-75
2023/09/23 06:19:05;;;;;;;3.22;2.25;;;;;;;16.31;71.68;98783.16;5086757;28;20052;-75
2023/09/23 06:21:32;;;;;;;2.88;2.05;;;;;;;13.36;70.94;98299.78;5086481;28;20056;-74
2023/09/23 06:23:59;;;;;;;2.97;2.20;;;;;;;16.28;70.92;98789.63;5086796;28;20078;-75
2023/09/23 06:26:25;;;;;;;3.30;1.98;;;;;;;16.31;71.29;98783.16;5086485;28;20307;-75
2023/09/23 06:28:52;;;;;;;2.67;2.03;;;;;;;16.37;70.95;98796.00;5086208;28;20227;-74
2023/09/23 06:31:20;;;;;;;3.03;2.00;;;;;;;16.32;71.01;98799.06;5086643;28;20045;-74
2023/09/23 06:33:47;;;;;;;3.15;1.90;;;;;;;16.27;70.53;98806.66;5086837;28;20062;-75
2023/09/23 06:36:13;;;;;;;3.22;1.90;;;;;;;16.24;70.87;98814.09;5086491;28;20052;-74
2023/09/23 06:38:40;;;;;;;5.57;2.65;;;;;;;16.23;70.44;98817.75;5085320;28;20235;-75
2023/09/23 06:41:07;;;;;;;3.05;2.17;;;;;;;16.31;70.51;98820.59;5086442;28;20079;-75
2023/09/23 06:43:34;;;;;;;2.92;1.92;;;;;;;15.94;70.50;98774.81;5068640;28;20064;-75
2023/09/23 06:46:01;;;;;;;3.85;1.98;;;;;;;16.26;70.55;98825.50;5085203;28;20145;-74
2023/09/23 06:48:29;;;;;;;5.93;2.45;;;;;;;16.30;70.28;98824.25;5101977;28;20043;-75
2023/09/23 06:50:57;;;;;;;2.70;1.80;;;;;;;16.23;71.47;98820.41;5085918;28;20044;-74
2023/09/23 06:53:24;;;;;;;3.78;1.92;;;;;;;16.00;71.46;98782.31;5086150;28;20052;-75
2023/09/23 06:55:51;;;;;;;4.68;2.70;;;;;;;16.19;72.22;98827.84;5086183;28;20116;-75
2023/09/23 06:58:18;;;;;;;3.17;2.05;;;;;;;16.12;73.64;98824.00;5086099;28;20165;-75
2023/09/23 07:00:44;;;;;;;3.70;2.40;;;;;;;16.16;73.23;98828.13;5085735;28;20097;-75
2023/09/23 07:03:11;;;;;;;3.42;2.42;;;;;;;15.86;73.23;98780.81;5085828;28;20074;-74
2023/09/23 07:05:40;;;;;;;3.22;2.00;;;;;;;16.22;73.28;98826.75;5085134;28;20051;-74
2023/09/23 07:08:07;;;;;;;3.47;2.20;;;;;;;16.15;73.33;98829.09;5085136;28;20296;-75
2023/09/23 07:10:38;;;;;;;3.20;2.22;;;;;;;16.15;73.66;98834.44;5085175;28;20359;-75
2023/09/23 07:13:05;;;;;;;3.17;1.88;;;;;;;15.38;73.60;98716.38;5085947;28;20315;-75
2023/09/23 07:15:32;;;;;;;3.42;2.20;;;;;;;16.17;72.47;98834.31;5085643;28;20036;-74
2023/09/23 07:17:59;;;;;;;4.50;2.25;;;;;;;16.15;72.23;98837.13;5084648;28;20098;-75
2023/09/23 07:20:27;;;;;;;3.35;2.10;;;;;;;16.22;72.39;98843.63;5084678;28;20124;-75
2023/09/23 07:22:55;;;;;;;2.97;2.15;;;;;;;16.21;72.75;98863.31;5085722;28;20044;-75
2023/09/23 07:25:22;;;;;;;3.08;2.30;;;;;;;16.22;72.20;98865.03;5084369;28;20067;-75
2023/09/23 07:27:49;;;;;;;8.18;2.72;;;;;;;16.18;70.76;98874.28;5085763;28;20040;-75
2023/09/23 07:30:17;;;;;;;2.83;2.10;;;;;;;16.23;70.85;98873.88;5085389;28;20195;-75
2023/09/23 07:32:44;;;;;;;3.20;2.30;;;;;;;16.20;70.38;98868.81;5085755;28;20048;-75
2023/09/23 07:35:11;;;;;;;3.60;2.60;;;;;;;16.18;70.37;98868.94;5084525;28;20304;-75
2023/09/23 07:37:37;;;;;;;3.17;2.30;;;;;;;16.20;71.00;98877.66;5085048;28;20112;-75
2023/09/23 07:40:07;;;;;;;4.07;2.50;;;;;;;16.17;70.21;98882.44;5085565;28;20052;-75
2023/09/23 07:42:34;;;;;;;3.10;2.13;;;;;;;16.22;70.12;98889.06;5085600;28;20086;-75
2023/09/23 07:45:00;;;;;;;4.00;2.20;;;;;;;16.23;70.51;98882.75;5085123;28;20218;-75
2023/09/23 07:47:27;;;;;;;3.25;2.40;;;;;;;16.16;70.23;98892.28;5085218;28;20036;-75
2023/09/23 07:49:54;;;;;;;5.32;3.28;;;;;;;16.17;70.52;98899.31;5084454;28;20040;-75
2023/09/23 07:52:21;;;;;;;5.00;2.45;;;;;;;16.03;70.62;98900.50;5085773;28;20044;-75
2023/09/23 07:54:47;;;;;;;3.55;2.28;;;;;;;16.11;70.63;98902.50;5085214;28;20196;-75
2023/09/23 07:57:15;;;;;;;3.88;2.60;;;;;;;16.15;70.61;98909.28;5085050;28;20339;-75
2023/09/23 07:59:43;;;;;;;4.00;2.30;;;;;;;16.22;71.32;98910.47;5085400;28;20047;-75
2023/09/23 08:02:09;;;;;;;3.47;2.53;;;;;;;16.21;70.71;98906.09;5085366;28;20052;-75
2023/09/23 08:04:36;;;;;;;3.85;2.50;;;;;;;16.15;71.51;98909.28;5085450;28;20055;-75
2023/09/23 08:07:03;;;;;;;4.05;2.80;;;;;;;16.25;71.32;98906.69;5085316;28;20051;-75
2023/09/23 08:09:30;;;;;;;3.95;3.15;;;;;;;16.20;70.56;98917.78;5084027;28;20044;-75
2023/09/23 08:11:56;;;;;;;6.03;3.17;;;;;;;15.84;69.89;98860.28;5085366;28;20049;-75
2023/09/23 08:14:25;;;;;;;4.20;3.13;;;;;;;15.79;69.77;98850.94;5084147;28;20036;-75
2023/09/23 08:16:52;;;;;;;4.57;2.55;;;;;;;16.17;69.86;98898.47;5085186;28;20052;-75
2023/09/23 08:19:19;;;;;;;4.07;2.78;;;;;;;16.20;69.98;98908.91;5086137;28;20040;-75
2023/09/23 08:21:46;;;;;;;4.28;3.20;;;;;;;16.11;70.49;98915.88;5071288;28;20102;-75
2023/09/23 08:24:13;;;;;;;4.07;3.17;;;;;;;16.11;70.06;98913.22;5088487;28;20134;-75
2023/09/23 08:26:40;;;;;;;4.22;3.50;;;;;;;15.86;69.37;98862.81;5088652;28;20040;-75
2023/09/23 08:29:07;;;;;;;4.28;3.30;;;;;;;16.12;69.44;98916.72;5087845;28;20242;-75
2023/09/23 08:31:36;;;;;;;4.55;3.08;;;;;;;16.08;69.27;98915.28;5088796;28;20115;-75
2023/09/23 08:34:09;;;;;;;4.20;3.00;;;;;;;15.39;69.28;98776.81;5088906;28;20066;-75
2023/09/23 08:36:36;;;;;;;4.15;3.13;;;;;;;15.43;69.29;98790.75;5089160;28;20048;-74
2023/09/23 08:39:05;;;;;;;5.63;3.80;;;;;;;15.67;69.61;98842.16;5087529;28;20082;-75
2023/09/23 08:41:34;;;;;;;5.60;3.78;;;;;;;16.15;69.83;98921.81;5087483;28;20115;-75
2023/09/23 08:44:05;;;;;;;4.75;3.70;;;;;;;15.92;69.07;98878.31;5088593;28;20180;-74
2023/09/23 08:46:32;;;;;;;4.55;3.70;;;;;;;16.07;68.95;98905.59;5088861;28;20114;-74
2023/09/23 08:49:03;;;;;;;4.75;3.88;;;;;;;16.11;69.62;98909.69;5088379;28;20310;-74
2023/09/23 08:51:31;;;;;;;5.82;4.10;;;;;;;15.95;69.04;98883.41;5088291;28;20044;-75
2023/09/23 08:53:58;;;;;;;4.30;3.28;;;;;;;16.13;69.98;98915.75;5088104;28;20346;-75
2023/09/23 08:56:24;;;;;;;5.47;3.75;;;;;;;16.16;69.62;98920.84;5088654;28;20082;-75
2023/09/23 08:58:51;;;;;;;5.13;3.97;;;;;;;16.16;69.58;98920.84;5087900;28;20136;-74
2023/09/23 09:01:18;;;;;;;5.57;3.97;;;;;;;16.15;69.37;98924.50;5088429;28;20048;-75
2023/09/23 09:03:47;;;;;;;5.45;3.95;;;;;;;16.20;69.85;98919.59;5086876;28;20109;-75
2023/09/23 09:06:19;;;;;;;5.28;4.07;;;;;;;15.97;69.74;98887.66;5088090;28;20052;-74
2023/09/23 09:08:46;;;;;;;5.25;4.05;;;;;;;16.16;69.42;98919.00;5087750;28;20315;-74
2023/09/23 09:11:21;;;;;;;5.10;4.00;;;;;;;16.20;69.31;98917.78;5087810;28;20083;-75
2023/09/23 09:13:49;;;;;;;5.95;4.53;;;;;;;16.23;69.44;98917.50;5087318;28;20074;-75
2023/09/23 09:16:16;;;;;;;5.40;4.20;;;;;;;16.21;68.99;98930.16;5087839;28;20040;-75
2023/09/23 09:18:43;;;;;;;4.97;4.05;;;;;;;16.17;69.06;98927.88;5087737;28;20051;-75
2023/09/23 09:21:10;;;;;;;4.55;3.72;;;;;;;16.22;69.10;98923.00;5086627;28;20053;-75
2023/09/23 09:23:38;;;;;;;5.97;3.78;;;;;;;16.26;69.12;98925.28;5087597;28;20334;-75
2023/09/23 09:26:05;;;;;;;4.90;3.70;;;;;;;16.27;69.25;98916.28;5088229;28;20076;-75
2023/09/23 09:28:32;;;;;;;4.05;3.30;;;;;;;13.31;68.80;98425.22;5087592;28;20042;-75
2023/09/23 09:30:59;;;;;;;5.07;3.75;;;;;;;16.29;68.95;98913.47;5086616;28;20050;-75
2023/09/23 09:33:27;;;;;;;4.80;3.17;;;;;;;16.30;68.83;98920.50;5087762;28;20044;-75
2023/09/23 09:35:55;;;;;;;5.13;3.97;;;;;;;16.15;69.24;98895.09;5087768;28;20049;-75
2023/09/23 09:38:24;;;;;;;5.25;4.05;;;;;;;16.39;69.97;98927.75;5086355;28;20319;-75
2023/09/23 09:41:01;;;;;;;4.57;3.38;;;;;;;16.08;69.10;98878.72;5087590;28;20200;-75
2023/09/23 09:43:28;;;;;;;5.45;3.53;;;;;;;16.38;68.24;98935.91;5087142;28;20040;-75
2023/09/23 09:45:56;;;;;;;5.18;3.00;;;;;;;16.14;68.41;98891.56;5087538;28;20055;-74
2023/09/23 09:48:26;;;;;;;4.05;2.92;;;;;;;16.42;68.61;98934.66;5087202;28;20304;-75
2023/09/23 09:50:55;;;;;;;4.18;3.03;;;;;;;16.43;68.54;98923.81;5086391;28;20044;-75
2023/09/23 09:53:23;;;;;;;3.72;2.75;;;;;;;16.47;68.30;98929.75;5086864;28;20032;-75
2023/09/23 09:55:51;;;;;;;4.07;2.90;;;;;;;15.82;67.98;98832.84;5087054;28;20101;-75
2023/09/23 09:58:23;;;;;;;4.32;3.05;;;;;;;16.49;68.10;98934.00;5069404;28;20052;-75
2023/09/23 10:00:52;;;;;;;4.80;3.38;;;;;;;16.18;67.09;98909.03;5087275;28;20051;-75
2023/09/23 10:03:27;;;;;;;4.20;3.25;;;;;;;16.12;67.10;98892.66;5069712;28;20045;-75
2023/09/23 10:06:00;;;;;;;4.28;3.00;;;;;;;16.12;66.57;98922.94;5087010;28;20068;-75
2023/09/23 10:08:37;;;;;;;4.13;3.03;;;;;;;16.44;66.89;98967.47;5087101;28;20051;-73
2023/09/23 10:11:09;;;;;;;4.22;2.85;;;;;;;16.45;66.89;98962.00;5086729;28;20094;-75
2023/09/23 10:13:37;;;;;;;4.05;3.08;;;;;;;16.52;66.85;98960.47;5085827;28;20044;-75
2023/09/23 10:16:04;;;;;;;4.30;2.92;;;;;;;16.50;66.75;98975.81;5069214;28;20090;-74
2023/09/23 10:18:36;;;;;;;4.60;3.03;;;;;;;16.49;66.15;98976.78;5087091;28;20280;-75
2023/09/23 10:21:04;;;;;;;5.38;3.38;;;;;;;16.49;66.18;98974.13;5085493;28;20101;-76
2023/09/23 10:23:34;;;;;;;3.85;2.97;;;;;;;16.35;65.81;98953.91;5086165;28;20051;-74
2023/09/23 10:26:13;;;;;;;3.95;3.08;;;;;;;16.55;66.14;98978.94;5085540;28;20119;-75
2023/09/23 10:28:42;;;;;;;4.10;3.30;;;;;;;16.54;66.10;98969.22;5085997;28;20124;-74
2023/09/23 10:31:10;;;;;;;4.50;3.08;;;;;;;15.85;65.91;98877.16;5086441;28;20074;-74
2023/09/23 10:33:38;;;;;;;4.32;3.25;;;;;;;16.60;66.30;98975.88;5086516;28;20048;-74
2023/09/23 10:36:06;;;;;;;4.30;2.88;;;;;;;16.68;66.02;98976.94;5086566;28;20093;-74
2023/09/23 10:38:37;;;;;;;6.00;4.10;;;;;;;16.70;66.19;98966.13;5086729;28;20051;-74
2023/09/23 10:41:05;;;;;;;5.40;3.45;;;;;;;16.74;65.84;98966.69;5086557;28;20044;-74
2023/09/23 10:43:32;;;;;;;5.45;3.60;;;;;;;16.74;65.63;98961.34;5086267;28;20052;-74
2023/09/23 10:46:02;;;;;;;5.15;3.72;;;;;;;16.38;66.01;98898.47;5086034;28;20328;-74
2023/09/23 10:48:29;;;;;;;5.25;3.88;;;;;;;16.65;66.07;98909.44;5086046;28;20036;-74
2023/09/23 10:50:56;;;;;;;4.63;3.53;;;;;;;17.00;65.81;98962.59;5085974;28;20052;-74
2023/09/23 10:53:24;;;;;;;4.90;3.92;;;;;;;16.96;66.35;98974.56;5085179;28;20044;-74
2023/09/23 10:55:52;;;;;;;5.65;3.20;;;;;;;16.87;64.35;98986.06;5085086;28;20037;-75
2023/09/23 10:58:19;;;;;;;4.88;3.47;;;;;;;16.90;65.49;98988.47;5085969;28;20044;-74
2023/09/23 11:00:47;;;;;;;5.22;3.67;;;;;;;16.96;65.24;98979.91;5085589;28;20032;-74
2023/09/23 11:03:17;;;;;;;4.57;3.45;;;;;;;16.91;64.31;98980.31;5085989;28;20106;-74
2023/09/23 11:05:46;;;;;;;3.70;2.75;;;;;;;16.92;64.56;98976.66;5085893;28;20113;-74
2023/09/23 11:08:15;;;;;;;4.07;2.95;;;;;;;16.99;64.49;98974.28;5085476;28;20036;-74
2023/09/23 11:10:43;;;;;;;4.40;3.42;;;;;;;16.98;64.38;98976.09;5086052;28;20108;-74
2023/09/23 11:13:11;;;;;;;5.30;3.45;;;;;;;17.01;64.16;98969.63;5086139;28;20063;-74
2023/09/23 11:15:39;;;;;;;4.28;3.60;;;;;;;16.60;64.63;98927.72;5084982;28;20177;-74
2023/09/23 11:18:08;;;;;;;4.53;3.13;;;;;;;16.56;63.89;98902.22;5085486;28;20044;-75
2023/09/23 11:20:40;;;;;;;3.80;2.75;;;;;;;16.95;64.44;98973.69;5084845;28;20067;-75
2023/09/23 11:23:10;;;;;;;3.92;2.95;;;;;;;17.04;64.52;98992.63;5085819;28;20314;-75
2023/09/23 11:25:38;;;;;;;5.03;2.83;;;;;;;17.03;63.91;99002.47;5085534;28;20036;-75
2023/09/23 11:28:05;;;;;;;4.63;3.45;;;;;;;17.04;64.28;99001.50;5085710;28;20097;-74
2023/09/23 11:30:32;;;;;;;4.75;2.90;;;;;;;17.09;64.43;99009.13;5068102;28;20036;-75
2023/09/23 11:33:00;;;;;;;3.90;3.03;;;;;;;16.26;63.94;98879.81;5084545;28;20044;-75
2023/09/23 11:35:27;;;;;;;4.15;3.10;;;;;;;17.01;63.85;99033.88;5085363;28;20346;-75
2023/09/23 11:37:55;;;;;;;4.10;2.95;;;;;;;16.70;63.34;98981.31;5084112;28;20255;-74